sensor_id;sensor_type;location;lat;lon;timestamp;P1;durP1;ratioP1;P2;durP2;ratioP2
13404;SDS011;6773;51.192;7.024;2023-03-23T00:00:46;2.80;;;2.20;;
13404;SDS011;6773;51.192;7.024;2023-03-23T00:03:12;3.87;;;2.13;;
13404;SDS011;6773;51.192;7.024;2023-03-23T00:05:38;3.60;;;2.40;;
13404;SDS011;6773;51.192;7.024;2023-03-23T00:08:06;2.40;;;2.20;;
13404;SDS011;6773;51.192;7.024;2023-03-23T00:10:34;3.30;;;2.20;;
13404;SDS011;6773;51.192;7.024;2023-03-23T00:13:00;4.90;;;2.33;;
13404;SDS011;6773;51.192;7.024;2023-03-23T00:15:29;2.10;;;1.90;;
13404;SDS011;6773;51.192;7.024;2023-03-23T00:18:00;3.93;;;2.20;;
13404;SDS011;6773;51.192;7.024;2023-03-23T00:20:27;3.13;;;2.43;;
13404;SDS011;6773;51.192;7.024;2023-03-23T00:22:54;4.00;;;2.30;;
13404;SDS011;6773;51.192;7.024;2023-03-23T00:25:24;2.73;;;2.20;;
13404;SDS011;6773;51.192;7.024;2023-03-23T00:27:50;2.50;;;2.20;;
13404;SDS011;6773;51.192;7.024;2023-03-23T00:30:16;4.33;;;2.47;;
13404;SDS011;6773;51.192;7.024;2023-03-23T00:32:42;3.13;;;2.53;;
13404;SDS011;6773;51.192;7.024;2023-03-23T00:35:08;2.30;;;2.10;;
13404;SDS011;6773;51.192;7.024;2023-03-23T00:37:34;3.50;;;2.30;;
13404;SDS011;6773;51.192;7.024;2023-03-23T00:40:01;2.93;;;2.30;;
13404;SDS011;6773;51.192;7.024;2023-03-23T00:42:30;3.43;;;2.20;;
13404;SDS011;6773;51.192;7.024;2023-03-23T00:45:01;2.33;;;2.13;;
13404;SDS011;6773;51.192;7.024;2023-03-23T00:47:27;2.47;;;2.00;;
13404;SDS011;6773;51.192;7.024;2023-03-23T00:49:53;2.50;;;1.90;;
13404;SDS011;6773;51.192;7.024;2023-03-23T00:52:21;4.40;;;2.40;;
13404;SDS011;6773;51.192;7.024;2023-03-23T00:54:47;2.47;;;2.27;;
13404;SDS011;6773;51.192;7.024;2023-03-23T00:57:12;2.50;;;2.30;;
13404;SDS011;6773;51.192;7.024;2023-03-23T00:59:38;4.03;;;2.00;;
13404;SDS011;6773;51.192;7.024;2023-03-23T01:02:04;3.00;;;2.20;;
13404;SDS011;6773;51.192;7.024;2023-03-23T01:04:29;2.20;;;1.83;;
13404;SDS011;6773;51.192;7.024;2023-03-23T01:06:56;3.50;;;2.43;;
13404;SDS011;6773;51.192;7.024;2023-03-23T01:09:25;2.77;;;1.90;;
13404;SDS011;6773;51.192;7.024;2023-03-23T01:11:51;3.07;;;2.13;;
13404;SDS011;6773;51.192;7.024;2023-03-23T01:14:20;2.20;;;2.00;;
13404;SDS011;6773;51.192;7.024;2023-03-23T01:16:46;4.87;;;2.30;;
13404;SDS011;6773;51.192;7.024;2023-03-23T01:19:11;3.80;;;2.00;;
13404;SDS011;6773;51.192;7.024;2023-03-23T01:21:37;3.10;;;2.27;;
13404;SDS011;6773;51.192;7.024;2023-03-23T01:24:03;2.43;;;2.23;;
13404;SDS011;6773;51.192;7.024;2023-03-23T01:26:29;1.90;;;1.77;;
13404;SDS011;6773;51.192;7.024;2023-03-23T01:28:55;2.60;;;2.20;;
13404;SDS011;6773;51.192;7.024;2023-03-23T01:31:22;2.77;;;2.10;;
13404;SDS011;6773;51.192;7.024;2023-03-23T01:33:49;3.17;;;2.87;;
13404;SDS011;6773;51.192;7.024;2023-03-23T01:36:17;2.27;;;2.03;;
13404;SDS011;6773;51.192;7.024;2023-03-23T01:38:45;2.80;;;1.90;;
13404;SDS011;6773;51.192;7.024;2023-03-23T01:41:13;2.67;;;2.33;;
13404;SDS011;6773;51.192;7.024;2023-03-23T01:43:55;6.20;;;2.60;;
13404;SDS011;6773;51.192;7.024;2023-03-23T01:46:30;2.50;;;2.30;;
13404;SDS011;6773;51.192;7.024;2023-03-23T01:48:59;2.80;;;2.47;;
13404;SDS011;6773;51.192;7.024;2023-03-23T01:51:31;6.17;;;2.73;;
13404;SDS011;6773;51.192;7.024;2023-03-23T01:54:00;4.03;;;2.63;;
13404;SDS011;6773;51.192;7.024;2023-03-23T01:56:31;3.90;;;2.80;;
13404;SDS011;6773;51.192;7.024;2023-03-23T01:59:03;5.00;;;2.70;;
13404;SDS011;6773;51.192;7.024;2023-03-23T02:01:28;3.63;;;2.73;;
13404;SDS011;6773;51.192;7.024;2023-03-23T02:03:55;4.10;;;2.83;;
13404;SDS011;6773;51.192;7.024;2023-03-23T02:06:22;3.33;;;3.03;;
13404;SDS011;6773;51.192;7.024;2023-03-23T02:08:48;3.33;;;3.03;;
13404;SDS011;6773;51.192;7.024;2023-03-23T02:11:15;5.07;;;3.37;;
13404;SDS011;6773;51.192;7.024;2023-03-23T02:13:43;3.80;;;3.30;;
13404;SDS011;6773;51.192;7.024;2023-03-23T02:35:44;3.83;;;3.43;;
13404;SDS011;6773;51.192;7.024;2023-03-23T02:38:28;6.93;;;3.70;;
13404;SDS011;6773;51.192;7.024;2023-03-23T02:41:02;4.77;;;3.70;;
13404;SDS011;6773;51.192;7.024;2023-03-23T02:43:31;4.40;;;3.93;;
13404;SDS011;6773;51.192;7.024;2023-03-23T02:46:01;4.53;;;3.47;;
13404;SDS011;6773;51.192;7.024;2023-03-23T02:48:31;7.33;;;3.97;;
13404;SDS011;6773;51.192;7.024;2023-03-23T02:50:58;5.87;;;3.70;;
13404;SDS011;6773;51.192;7.024;2023-03-23T02:53:26;4.73;;;3.33;;
13404;SDS011;6773;51.192;7.024;2023-03-23T02:55:54;3.60;;;3.00;;
13404;SDS011;6773;51.192;7.024;2023-03-23T02:58:22;3.43;;;2.90;;
13404;SDS011;6773;51.192;7.024;2023-03-23T03:00:51;3.60;;;3.30;;
13404;SDS011;6773;51.192;7.024;2023-03-23T03:03:18;4.60;;;3.30;;
13404;SDS011;6773;51.192;7.024;2023-03-23T03:08:19;3.80;;;3.20;;
13404;SDS011;6773;51.192;7.024;2023-03-23T03:10:55;4.77;;;2.90;;
13404;SDS011;6773;51.192;7.024;2023-03-23T03:13:35;3.37;;;3.00;;
13404;SDS011;6773;51.192;7.024;2023-03-23T03:18:56;3.50;;;3.00;;
13404;SDS011;6773;51.192;7.024;2023-03-23T03:21:29;6.40;;;3.27;;
13404;SDS011;6773;51.192;7.024;2023-03-23T03:23:58;3.17;;;2.60;;
13404;SDS011;6773;51.192;7.024;2023-03-23T03:26:28;3.80;;;2.90;;
13404;SDS011;6773;51.192;7.024;2023-03-23T03:28:57;3.47;;;3.17;;
13404;SDS011;6773;51.192;7.024;2023-03-23T03:31:27;3.80;;;2.80;;
13404;SDS011;6773;51.192;7.024;2023-03-23T03:33:57;3.13;;;2.73;;
13404;SDS011;6773;51.192;7.024;2023-03-23T03:36:27;3.07;;;2.70;;
13404;SDS011;6773;51.192;7.024;2023-03-23T03:39:01;3.70;;;2.77;;
13404;SDS011;6773;51.192;7.024;2023-03-23T03:41:36;2.87;;;2.57;;
13404;SDS011;6773;51.192;7.024;2023-03-23T03:44:03;3.77;;;2.60;;
13404;SDS011;6773;51.192;7.024;2023-03-23T03:46:31;2.87;;;2.67;;
13404;SDS011;6773;51.192;7.024;2023-03-23T03:49:00;3.30;;;2.70;;
13404;SDS011;6773;51.192;7.024;2023-03-23T03:51:27;2.70;;;2.50;;
13404;SDS011;6773;51.192;7.024;2023-03-23T03:53:54;2.77;;;2.57;;
13404;SDS011;6773;51.192;7.024;2023-03-23T03:56:21;2.80;;;2.53;;
13404;SDS011;6773;51.192;7.024;2023-03-23T03:58:47;2.97;;;2.43;;
13404;SDS011;6773;51.192;7.024;2023-03-23T04:01:14;4.40;;;2.70;;
13404;SDS011;6773;51.192;7.024;2023-03-23T04:03:41;2.70;;;2.50;;
13404;SDS011;6773;51.192;7.024;2023-03-23T04:06:07;2.97;;;2.63;;
13404;SDS011;6773;51.192;7.024;2023-03-23T04:08:34;2.37;;;2.20;;
13404;SDS011;6773;51.192;7.024;2023-03-23T04:11:02;2.73;;;2.50;;
13404;SDS011;6773;51.192;7.024;2023-03-23T04:13:29;2.57;;;2.27;;
13404;SDS011;6773;51.192;7.024;2023-03-23T04:15:55;2.90;;;2.43;;
13404;SDS011;6773;51.192;7.024;2023-03-23T04:18:20;2.63;;;2.43;;
13404;SDS011;6773;51.192;7.024;2023-03-23T04:20:47;2.97;;;2.30;;
13404;SDS011;6773;51.192;7.024;2023-03-23T04:23:17;2.50;;;2.30;;
13404;SDS011;6773;51.192;7.024;2023-03-23T04:25:48;2.47;;;2.27;;
13404;SDS011;6773;51.192;7.024;2023-03-23T04:28:14;2.53;;;2.27;;
13404;SDS011;6773;51.192;7.024;2023-03-23T04:30:44;4.57;;;2.63;;
13404;SDS011;6773;51.192;7.024;2023-03-23T04:33:14;5.10;;;2.70;;
13404;SDS011;6773;51.192;7.024;2023-03-23T04:35:41;2.50;;;2.30;;
13404;SDS011;6773;51.192;7.024;2023-03-23T04:38:07;2.30;;;2.00;;
13404;SDS011;6773;51.192;7.024;2023-03-23T04:40:37;2.60;;;2.30;;
13404;SDS011;6773;51.192;7.024;2023-03-23T04:43:06;2.00;;;1.90;;
13404;SDS011;6773;51.192;7.024;2023-03-23T04:45:32;3.00;;;2.10;;
13404;SDS011;6773;51.192;7.024;2023-03-23T04:47:59;3.67;;;2.10;;
13404;SDS011;6773;51.192;7.024;2023-03-23T04:50:29;2.17;;;1.97;;
13404;SDS011;6773;51.192;7.024;2023-03-23T04:52:57;2.37;;;2.17;;
13404;SDS011;6773;51.192;7.024;2023-03-23T04:55:28;3.93;;;2.10;;
13404;SDS011;6773;51.192;7.024;2023-03-23T04:58:01;3.60;;;2.30;;
13404;SDS011;6773;51.192;7.024;2023-03-23T05:00:30;2.10;;;1.90;;
13404;SDS011;6773;51.192;7.024;2023-03-23T05:02:57;2.00;;;1.80;;
13404;SDS011;6773;51.192;7.024;2023-03-23T05:05:23;2.30;;;2.10;;
13404;SDS011;6773;51.192;7.024;2023-03-23T05:07:50;2.43;;;2.23;;
13404;SDS011;6773;51.192;7.024;2023-03-23T05:10:16;2.57;;;2.30;;
13404;SDS011;6773;51.192;7.024;2023-03-23T05:12:42;2.10;;;1.97;;
13404;SDS011;6773;51.192;7.024;2023-03-23T05:15:10;3.97;;;2.10;;
13404;SDS011;6773;51.192;7.024;2023-03-23T05:17:37;1.97;;;1.87;;
13404;SDS011;6773;51.192;7.024;2023-03-23T05:20:04;3.97;;;2.00;;
13404;SDS011;6773;51.192;7.024;2023-03-23T05:22:36;2.63;;;2.30;;
13404;SDS011;6773;51.192;7.024;2023-03-23T05:25:01;2.97;;;2.40;;
13404;SDS011;6773;51.192;7.024;2023-03-23T05:27:28;2.37;;;2.00;;
13404;SDS011;6773;51.192;7.024;2023-03-23T05:29:55;2.40;;;2.00;;
13404;SDS011;6773;51.192;7.024;2023-03-23T05:32:23;2.63;;;2.43;;
13404;SDS011;6773;51.192;7.024;2023-03-23T05:35:03;2.50;;;2.30;;
13404;SDS011;6773;51.192;7.024;2023-03-23T05:37:29;2.20;;;2.00;;
13404;SDS011;6773;51.192;7.024;2023-03-23T05:39:59;2.47;;;2.27;;
13404;SDS011;6773;51.192;7.024;2023-03-23T05:42:30;2.40;;;2.20;;
13404;SDS011;6773;51.192;7.024;2023-03-23T05:44:56;3.97;;;2.30;;
13404;SDS011;6773;51.192;7.024;2023-03-23T05:47:23;2.70;;;2.50;;
13404;SDS011;6773;51.192;7.024;2023-03-23T05:49:50;4.03;;;2.67;;
13404;SDS011;6773;51.192;7.024;2023-03-23T05:52:18;2.70;;;2.43;;
13404;SDS011;6773;51.192;7.024;2023-03-23T05:54:44;2.80;;;2.50;;
13404;SDS011;6773;51.192;7.024;2023-03-23T05:57:10;3.13;;;2.40;;
13404;SDS011;6773;51.192;7.024;2023-03-23T05:59:36;3.63;;;2.50;;
13404;SDS011;6773;51.192;7.024;2023-03-23T06:02:02;3.27;;;2.83;;
13404;SDS011;6773;51.192;7.024;2023-03-23T06:04:28;3.80;;;2.90;;
13404;SDS011;6773;51.192;7.024;2023-03-23T06:06:54;3.20;;;2.70;;
13404;SDS011;6773;51.192;7.024;2023-03-23T06:09:19;2.33;;;2.13;;
13404;SDS011;6773;51.192;7.024;2023-03-23T06:11:46;3.50;;;3.00;;
13404;SDS011;6773;51.192;7.024;2023-03-23T06:14:12;2.70;;;2.50;;
13404;SDS011;6773;51.192;7.024;2023-03-23T06:16:38;6.63;;;2.80;;
13404;SDS011;6773;51.192;7.024;2023-03-23T06:19:03;3.13;;;2.37;;
13404;SDS011;6773;51.192;7.024;2023-03-23T06:21:30;2.70;;;2.50;;
13404;SDS011;6773;51.192;7.024;2023-03-23T06:23:56;3.47;;;2.70;;
13404;SDS011;6773;51.192;7.024;2023-03-23T06:26:25;3.30;;;2.60;;
13404;SDS011;6773;51.192;7.024;2023-03-23T06:28:55;4.73;;;3.07;;
13404;SDS011;6773;51.192;7.024;2023-03-23T06:31:22;2.73;;;2.53;;
13404;SDS011;6773;51.192;7.024;2023-03-23T06:33:49;5.33;;;2.73;;
13404;SDS011;6773;51.192;7.024;2023-03-23T06:36:15;3.10;;;2.33;;
13404;SDS011;6773;51.192;7.024;2023-03-23T06:38:41;4.93;;;2.47;;
13404;SDS011;6773;51.192;7.024;2023-03-23T06:41:07;2.57;;;2.13;;
13404;SDS011;6773;51.192;7.024;2023-03-23T06:43:33;4.83;;;2.60;;
13404;SDS011;6773;51.192;7.024;2023-03-23T06:46:01;2.87;;;2.60;;
13404;SDS011;6773;51.192;7.024;2023-03-23T06:48:27;3.47;;;2.30;;
13404;SDS011;6773;51.192;7.024;2023-03-23T06:50:53;2.40;;;2.03;;
13404;SDS011;6773;51.192;7.024;2023-03-23T06:53:19;2.63;;;1.77;;
13404;SDS011;6773;51.192;7.024;2023-03-23T06:55:45;3.33;;;2.30;;
13404;SDS011;6773;51.192;7.024;2023-03-23T06:58:11;4.00;;;2.40;;
13404;SDS011;6773;51.192;7.024;2023-03-23T07:00:38;3.87;;;2.40;;
13404;SDS011;6773;51.192;7.024;2023-03-23T07:03:05;2.07;;;1.80;;
13404;SDS011;6773;51.192;7.024;2023-03-23T07:05:31;2.40;;;1.70;;
13404;SDS011;6773;51.192;7.024;2023-03-23T07:08:01;3.37;;;1.97;;
13404;SDS011;6773;51.192;7.024;2023-03-23T07:10:28;5.07;;;2.13;;
13404;SDS011;6773;51.192;7.024;2023-03-23T07:12:54;4.30;;;2.00;;
13404;SDS011;6773;51.192;7.024;2023-03-23T07:15:19;3.50;;;1.80;;
13404;SDS011;6773;51.192;7.024;2023-03-23T07:17:46;1.97;;;1.73;;
13404;SDS011;6773;51.192;7.024;2023-03-23T07:20:13;4.30;;;1.73;;
13404;SDS011;6773;51.192;7.024;2023-03-23T07:22:39;2.57;;;1.70;;
13404;SDS011;6773;51.192;7.024;2023-03-23T07:25:05;2.80;;;1.80;;
13404;SDS011;6773;51.192;7.024;2023-03-23T07:27:32;3.93;;;1.90;;
13404;SDS011;6773;51.192;7.024;2023-03-23T07:29:58;2.93;;;1.67;;
13404;SDS011;6773;51.192;7.024;2023-03-23T07:32:24;2.00;;;1.80;;
13404;SDS011;6773;51.192;7.024;2023-03-23T07:34:50;4.57;;;2.10;;
13404;SDS011;6773;51.192;7.024;2023-03-23T07:37:17;2.37;;;1.80;;
13404;SDS011;6773;51.192;7.024;2023-03-23T07:39:43;2.63;;;1.87;;
13404;SDS011;6773;51.192;7.024;2023-03-23T07:42:08;2.30;;;1.60;;
13404;SDS011;6773;51.192;7.024;2023-03-23T07:44:35;3.80;;;1.87;;
13404;SDS011;6773;51.192;7.024;2023-03-23T07:47:00;2.00;;;1.67;;
13404;SDS011;6773;51.192;7.024;2023-03-23T07:49:26;4.37;;;1.97;;
13404;SDS011;6773;51.192;7.024;2023-03-23T07:51:52;4.60;;;2.00;;
13404;SDS011;6773;51.192;7.024;2023-03-23T07:54:18;2.83;;;1.87;;
13404;SDS011;6773;51.192;7.024;2023-03-23T07:56:44;3.90;;;2.00;;
13404;SDS011;6773;51.192;7.024;2023-03-23T07:59:10;4.83;;;2.03;;
13404;SDS011;6773;51.192;7.024;2023-03-23T08:01:37;2.77;;;2.10;;
13404;SDS011;6773;51.192;7.024;2023-03-23T08:04:04;4.73;;;2.27;;
13404;SDS011;6773;51.192;7.024;2023-03-23T08:06:31;4.10;;;2.33;;
13404;SDS011;6773;51.192;7.024;2023-03-23T08:08:58;5.20;;;1.90;;
13404;SDS011;6773;51.192;7.024;2023-03-23T08:11:25;3.83;;;2.20;;
13404;SDS011;6773;51.192;7.024;2023-03-23T08:13:51;2.17;;;1.80;;
13404;SDS011;6773;51.192;7.024;2023-03-23T08:16:17;2.60;;;1.60;;
13404;SDS011;6773;51.192;7.024;2023-03-23T08:18:43;2.37;;;2.07;;
13404;SDS011;6773;51.192;7.024;2023-03-23T08:21:09;1.90;;;1.67;;
13404;SDS011;6773;51.192;7.024;2023-03-23T08:23:36;3.33;;;2.00;;
13404;SDS011;6773;51.192;7.024;2023-03-23T08:26:05;5.90;;;1.70;;
13404;SDS011;6773;51.192;7.024;2023-03-23T08:28:32;2.33;;;1.70;;
13404;SDS011;6773;51.192;7.024;2023-03-23T08:31:06;4.73;;;1.73;;
13404;SDS011;6773;51.192;7.024;2023-03-23T08:33:32;1.90;;;1.60;;
13404;SDS011;6773;51.192;7.024;2023-03-23T08:35:59;2.30;;;1.50;;
13404;SDS011;6773;51.192;7.024;2023-03-23T08:38:26;5.67;;;2.30;;
13404;SDS011;6773;51.192;7.024;2023-03-23T08:40:57;2.57;;;2.00;;
13404;SDS011;6773;51.192;7.024;2023-03-23T08:43:23;2.27;;;1.57;;
13404;SDS011;6773;51.192;7.024;2023-03-23T08:45:49;3.47;;;1.77;;
13404;SDS011;6773;51.192;7.024;2023-03-23T08:48:16;2.23;;;1.80;;
13404;SDS011;6773;51.192;7.024;2023-03-23T08:50:42;3.73;;;1.80;;
13404;SDS011;6773;51.192;7.024;2023-03-23T08:53:09;3.07;;;2.17;;
13404;SDS011;6773;51.192;7.024;2023-03-23T08:55:35;4.53;;;2.17;;
13404;SDS011;6773;51.192;7.024;2023-03-23T08:58:01;3.53;;;1.80;;
13404;SDS011;6773;51.192;7.024;2023-03-23T09:00:28;1.90;;;1.53;;
13404;SDS011;6773;51.192;7.024;2023-03-23T09:02:54;5.07;;;1.90;;
13404;SDS011;6773;51.192;7.024;2023-03-23T09:05:22;2.77;;;1.67;;
13404;SDS011;6773;51.192;7.024;2023-03-23T09:07:51;3.30;;;1.60;;
13404;SDS011;6773;51.192;7.024;2023-03-23T09:10:18;1.77;;;1.57;;
13404;SDS011;6773;51.192;7.024;2023-03-23T09:12:45;3.70;;;1.80;;
13404;SDS011;6773;51.192;7.024;2023-03-23T09:15:12;3.60;;;1.70;;
13404;SDS011;6773;51.192;7.024;2023-03-23T09:17:40;7.37;;;1.80;;
13404;SDS011;6773;51.192;7.024;2023-03-23T09:20:11;3.73;;;1.90;;
13404;SDS011;6773;51.192;7.024;2023-03-23T09:22:42;3.97;;;1.60;;
13404;SDS011;6773;51.192;7.024;2023-03-23T09:25:10;5.53;;;2.20;;
13404;SDS011;6773;51.192;7.024;2023-03-23T09:27:38;5.03;;;1.83;;
13404;SDS011;6773;51.192;7.024;2023-03-23T09:30:08;4.53;;;1.63;;
13404;SDS011;6773;51.192;7.024;2023-03-23T09:32:35;4.07;;;1.90;;
13404;SDS011;6773;51.192;7.024;2023-03-23T09:35:02;4.03;;;2.07;;
13404;SDS011;6773;51.192;7.024;2023-03-23T09:37:31;5.07;;;1.90;;
13404;SDS011;6773;51.192;7.024;2023-03-23T09:39:58;4.53;;;2.17;;
13404;SDS011;6773;51.192;7.024;2023-03-23T09:50:32;5.60;;;1.87;;
13404;SDS011;6773;51.192;7.024;2023-03-23T09:53:10;7.63;;;1.60;;
13404;SDS011;6773;51.192;7.024;2023-03-23T09:55:44;5.60;;;2.00;;
13404;SDS011;6773;51.192;7.024;2023-03-23T10:03:39;6.07;;;1.90;;
13404;SDS011;6773;51.192;7.024;2023-03-23T10:06:10;4.53;;;1.90;;
13404;SDS011;6773;51.192;7.024;2023-03-23T10:08:43;3.80;;;1.70;;
13404;SDS011;6773;51.192;7.024;2023-03-23T10:16:38;4.03;;;1.73;;
13404;SDS011;6773;51.192;7.024;2023-03-23T10:19:12;3.50;;;1.70;;
13404;SDS011;6773;51.192;7.024;2023-03-23T10:21:42;5.53;;;2.47;;
13404;SDS011;6773;51.192;7.024;2023-03-23T10:24:17;5.03;;;1.97;;
13404;SDS011;6773;51.192;7.024;2023-03-23T10:34:31;1.60;;;1.33;;
13404;SDS011;6773;51.192;7.024;2023-03-23T10:39:29;3.73;;;2.07;;
13404;SDS011;6773;51.192;7.024;2023-03-23T10:41:59;2.50;;;1.50;;
13404;SDS011;6773;51.192;7.024;2023-03-23T10:44:32;2.77;;;1.70;;
13404;SDS011;6773;51.192;7.024;2023-03-23T10:49:36;2.30;;;1.40;;
13404;SDS011;6773;51.192;7.024;2023-03-23T10:52:33;2.07;;;1.30;;
13404;SDS011;6773;51.192;7.024;2023-03-23T10:57:35;1.87;;;1.70;;
13404;SDS011;6773;51.192;7.024;2023-03-23T11:00:07;4.30;;;1.70;;
13404;SDS011;6773;51.192;7.024;2023-03-23T11:02:47;2.50;;;1.70;;
13404;SDS011;6773;51.192;7.024;2023-03-23T11:05:41;2.13;;;1.40;;
13404;SDS011;6773;51.192;7.024;2023-03-23T11:08:24;4.03;;;2.03;;
13404;SDS011;6773;51.192;7.024;2023-03-23T11:13:22;3.90;;;1.80;;
13404;SDS011;6773;51.192;7.024;2023-03-23T11:15:52;4.17;;;1.63;;
13404;SDS011;6773;51.192;7.024;2023-03-23T11:18:23;3.20;;;1.70;;
13404;SDS011;6773;51.192;7.024;2023-03-23T11:20:55;2.30;;;1.90;;
13404;SDS011;6773;51.192;7.024;2023-03-23T11:26:17;3.70;;;1.90;;
13404;SDS011;6773;51.192;7.024;2023-03-23T11:28:47;1.83;;;1.70;;
13404;SDS011;6773;51.192;7.024;2023-03-23T11:31:23;2.30;;;2.10;;
13404;SDS011;6773;51.192;7.024;2023-03-23T11:36:36;2.97;;;2.17;;
13404;SDS011;6773;51.192;7.024;2023-03-23T11:39:53;2.43;;;2.23;;
13404;SDS011;6773;51.192;7.024;2023-03-23T11:41:58;5.43;;;2.43;;
13404;SDS011;6773;51.192;7.024;2023-03-23T11:44:39;6.10;;;2.33;;
13404;SDS011;6773;51.192;7.024;2023-03-23T11:50:10;3.37;;;2.73;;
13404;SDS011;6773;51.192;7.024;2023-03-23T11:54:09;5.43;;;2.70;;
13404;SDS011;6773;51.192;7.024;2023-03-23T11:58:53;3.77;;;2.93;;
13404;SDS011;6773;51.192;7.024;2023-03-23T12:07:08;4.43;;;3.57;;
13404;SDS011;6773;51.192;7.024;2023-03-23T12:15:22;5.47;;;3.83;;
13404;SDS011;6773;51.192;7.024;2023-03-23T12:31:11;6.53;;;3.40;;
13404;SDS011;6773;51.192;7.024;2023-03-23T12:44:09;5.77;;;3.77;;
13404;SDS011;6773;51.192;7.024;2023-03-23T12:49:43;6.57;;;3.83;;
13404;SDS011;6773;51.192;7.024;2023-03-23T12:54:46;4.90;;;3.90;;
13404;SDS011;6773;51.192;7.024;2023-03-23T12:57:35;5.43;;;3.40;;
13404;SDS011;6773;51.192;7.024;2023-03-23T13:00:05;4.00;;;3.40;;
13404;SDS011;6773;51.192;7.024;2023-03-23T13:02:56;4.80;;;3.50;;
13404;SDS011;6773;51.192;7.024;2023-03-23T13:05:43;6.80;;;3.90;;
13404;SDS011;6773;51.192;7.024;2023-03-23T13:08:20;4.90;;;3.63;;
13404;SDS011;6773;51.192;7.024;2023-03-23T13:10:53;6.47;;;3.93;;
13404;SDS011;6773;51.192;7.024;2023-03-23T13:13:24;4.60;;;4.20;;
13404;SDS011;6773;51.192;7.024;2023-03-23T13:18:54;4.60;;;3.70;;
13404;SDS011;6773;51.192;7.024;2023-03-23T13:21:27;6.80;;;6.20;;
13404;SDS011;6773;51.192;7.024;2023-03-23T13:24:27;8.77;;;7.00;;
13404;SDS011;6773;51.192;7.024;2023-03-23T13:26:56;6.13;;;4.20;;
13404;SDS011;6773;51.192;7.024;2023-03-23T13:29:26;6.47;;;4.23;;
13404;SDS011;6773;51.192;7.024;2023-03-23T13:31:52;7.17;;;4.30;;
13404;SDS011;6773;51.192;7.024;2023-03-23T13:34:30;4.80;;;4.03;;
13404;SDS011;6773;51.192;7.024;2023-03-23T13:37:04;5.97;;;5.33;;
13404;SDS011;6773;51.192;7.024;2023-03-23T13:39:35;5.83;;;5.30;;
13404;SDS011;6773;51.192;7.024;2023-03-23T13:49:54;7.30;;;4.63;;
13404;SDS011;6773;51.192;7.024;2023-03-23T14:08:35;5.57;;;5.07;;
13404;SDS011;6773;51.192;7.024;2023-03-23T14:11:14;6.23;;;4.10;;
13404;SDS011;6773;51.192;7.024;2023-03-23T14:19:28;4.80;;;2.87;;
13404;SDS011;6773;51.192;7.024;2023-03-23T14:21:57;3.73;;;2.10;;
13404;SDS011;6773;51.192;7.024;2023-03-23T14:24:25;4.97;;;2.40;;
13404;SDS011;6773;51.192;7.024;2023-03-23T14:27:09;2.87;;;2.00;;
13404;SDS011;6773;51.192;7.024;2023-03-23T14:29:38;5.03;;;2.20;;
13404;SDS011;6773;51.192;7.024;2023-03-23T14:32:05;4.47;;;2.43;;
13404;SDS011;6773;51.192;7.024;2023-03-23T14:34:43;3.93;;;2.10;;
13404;SDS011;6773;51.192;7.024;2023-03-23T14:37:12;1.90;;;1.70;;
13404;SDS011;6773;51.192;7.024;2023-03-23T14:39:44;3.07;;;1.70;;
13404;SDS011;6773;51.192;7.024;2023-03-23T14:42:13;2.97;;;2.00;;
13404;SDS011;6773;51.192;7.024;2023-03-23T14:44:44;8.00;;;1.97;;
13404;SDS011;6773;51.192;7.024;2023-03-23T14:47:37;3.00;;;2.13;;
13404;SDS011;6773;51.192;7.024;2023-03-23T14:50:04;2.40;;;2.00;;
13404;SDS011;6773;51.192;7.024;2023-03-23T14:52:35;4.73;;;2.20;;
13404;SDS011;6773;51.192;7.024;2023-03-23T14:55:19;3.83;;;2.63;;
13404;SDS011;6773;51.192;7.024;2023-03-23T14:57:47;4.27;;;2.03;;
13404;SDS011;6773;51.192;7.024;2023-03-23T15:02:41;3.50;;;1.90;;
13404;SDS011;6773;51.192;7.024;2023-03-23T15:05:14;3.20;;;2.33;;
13404;SDS011;6773;51.192;7.024;2023-03-23T15:07:47;5.37;;;2.33;;
13404;SDS011;6773;51.192;7.024;2023-03-23T15:10:17;4.33;;;2.43;;
13404;SDS011;6773;51.192;7.024;2023-03-23T15:12:45;3.07;;;2.33;;
13404;SDS011;6773;51.192;7.024;2023-03-23T15:17:49;5.13;;;2.20;;
13404;SDS011;6773;51.192;7.024;2023-03-23T15:20:21;4.13;;;2.77;;
13404;SDS011;6773;51.192;7.024;2023-03-23T15:23:21;5.43;;;2.80;;
13404;SDS011;6773;51.192;7.024;2023-03-23T15:25:52;8.27;;;2.87;;
13404;SDS011;6773;51.192;7.024;2023-03-23T15:28:20;5.03;;;2.77;;
13404;SDS011;6773;51.192;7.024;2023-03-23T15:30:57;5.63;;;3.07;;
13404;SDS011;6773;51.192;7.024;2023-03-23T15:33:25;4.33;;;2.40;;
13404;SDS011;6773;51.192;7.024;2023-03-23T15:35:53;5.17;;;2.60;;
13404;SDS011;6773;51.192;7.024;2023-03-23T15:40:49;5.57;;;3.10;;
13404;SDS011;6773;51.192;7.024;2023-03-23T15:43:18;6.83;;;2.70;;
13404;SDS011;6773;51.192;7.024;2023-03-23T15:45:52;3.60;;;2.70;;
13404;SDS011;6773;51.192;7.024;2023-03-23T15:48:19;4.37;;;3.17;;
13404;SDS011;6773;51.192;7.024;2023-03-23T15:50:46;5.10;;;2.77;;
13404;SDS011;6773;51.192;7.024;2023-03-23T15:55:50;6.27;;;2.77;;
13404;SDS011;6773;51.192;7.024;2023-03-23T15:58:16;5.97;;;2.93;;
13404;SDS011;6773;51.192;7.024;2023-03-23T16:00:42;4.20;;;2.73;;
13404;SDS011;6773;51.192;7.024;2023-03-23T16:03:11;5.50;;;2.80;;
13404;SDS011;6773;51.192;7.024;2023-03-23T16:05:42;7.07;;;3.50;;
13404;SDS011;6773;51.192;7.024;2023-03-23T16:08:09;5.87;;;3.37;;
13404;SDS011;6773;51.192;7.024;2023-03-23T16:10:36;4.73;;;3.23;;
13404;SDS011;6773;51.192;7.024;2023-03-23T16:13:02;3.47;;;3.07;;
13404;SDS011;6773;51.192;7.024;2023-03-23T16:15:29;4.23;;;2.93;;
13404;SDS011;6773;51.192;7.024;2023-03-23T16:17:55;8.13;;;3.20;;
13404;SDS011;6773;51.192;7.024;2023-03-23T16:20:21;6.40;;;3.60;;
13404;SDS011;6773;51.192;7.024;2023-03-23T16:22:48;7.00;;;3.97;;
13404;SDS011;6773;51.192;7.024;2023-03-23T16:25:15;6.17;;;3.03;;
13404;SDS011;6773;51.192;7.024;2023-03-23T16:27:42;5.43;;;3.20;;
13404;SDS011;6773;51.192;7.024;2023-03-23T16:30:13;7.50;;;3.60;;
13404;SDS011;6773;51.192;7.024;2023-03-23T16:32:44;5.23;;;3.30;;
13404;SDS011;6773;51.192;7.024;2023-03-23T16:35:10;6.50;;;3.13;;
13404;SDS011;6773;51.192;7.024;2023-03-23T16:37:36;3.33;;;2.70;;
13404;SDS011;6773;51.192;7.024;2023-03-23T16:40:03;3.80;;;2.33;;
13404;SDS011;6773;51.192;7.024;2023-03-23T16:42:30;5.00;;;2.40;;
13404;SDS011;6773;51.192;7.024;2023-03-23T16:44:55;5.27;;;2.83;;
13404;SDS011;6773;51.192;7.024;2023-03-23T16:47:21;4.37;;;2.33;;
13404;SDS011;6773;51.192;7.024;2023-03-23T16:49:50;3.43;;;1.90;;
13404;SDS011;6773;51.192;7.024;2023-03-23T16:52:16;3.07;;;1.90;;
13404;SDS011;6773;51.192;7.024;2023-03-23T16:54:42;5.43;;;1.80;;
13404;SDS011;6773;51.192;7.024;2023-03-23T16:57:09;3.10;;;2.00;;
13404;SDS011;6773;51.192;7.024;2023-03-23T16:59:35;3.40;;;2.17;;
13404;SDS011;6773;51.192;7.024;2023-03-23T17:02:01;6.10;;;2.00;;
13404;SDS011;6773;51.192;7.024;2023-03-23T17:04:28;4.00;;;1.90;;
13404;SDS011;6773;51.192;7.024;2023-03-23T17:06:54;3.33;;;2.13;;
13404;SDS011;6773;51.192;7.024;2023-03-23T17:09:22;4.23;;;1.97;;
13404;SDS011;6773;51.192;7.024;2023-03-23T17:11:48;4.97;;;2.00;;
13404;SDS011;6773;51.192;7.024;2023-03-23T17:14:14;5.43;;;2.17;;
13404;SDS011;6773;51.192;7.024;2023-03-23T17:16:40;5.43;;;2.07;;
13404;SDS011;6773;51.192;7.024;2023-03-23T17:19:06;4.17;;;2.00;;
13404;SDS011;6773;51.192;7.024;2023-03-23T17:21:32;6.57;;;4.63;;
13404;SDS011;6773;51.192;7.024;2023-03-23T17:23:57;4.83;;;1.90;;
13404;SDS011;6773;51.192;7.024;2023-03-23T17:26:23;4.70;;;2.70;;
13404;SDS011;6773;51.192;7.024;2023-03-23T17:28:48;5.03;;;2.10;;
13404;SDS011;6773;51.192;7.024;2023-03-23T17:31:14;6.33;;;2.20;;
13404;SDS011;6773;51.192;7.024;2023-03-23T17:33:40;3.90;;;2.40;;
13404;SDS011;6773;51.192;7.024;2023-03-23T17:36:06;4.77;;;2.63;;
13404;SDS011;6773;51.192;7.024;2023-03-23T17:38:32;4.53;;;2.20;;
13404;SDS011;6773;51.192;7.024;2023-03-23T17:40:58;5.23;;;2.33;;
13404;SDS011;6773;51.192;7.024;2023-03-23T17:43:25;4.63;;;1.93;;
13404;SDS011;6773;51.192;7.024;2023-03-23T17:45:51;3.57;;;2.27;;
13404;SDS011;6773;51.192;7.024;2023-03-23T17:48:17;4.53;;;2.13;;